Airfield :
LOGIN :

Register | Disclaimer

   EN    FR    IT 

 










Legend :    VFR   Marginal VFR   IFR   Intensive IFR   Very Intensive IFR
Visi :
Ceiling :
>= 8 km
>= 3000ft
5 to 8 km
1000 to 3000 ft
1500m to 5 km
500 to 1000 ft
800 to 1500m
200 to 500 ft
< 800m
< 200 ft
Symbols :   Thunderstorms  Fog  Heavy snow  Heavy precipitations  Wind > 20 kt
SIGMETs :     Misc.  Thunderstorms  Icing  Turbulence  Mountain Waves  Volcanic Ashes






- Airport Elevation : 705 ft
- IATA code : LYC


ESNL - Lycksele

CURRENT METAR :
  • 292250Z AUTO 31003KT 9999 NCD M00/M01 Q1005

EXPIRED METARs :
  • 292220Z AUTO VRB03KT 9999 NCD M00/M00 Q1005
  • 292150Z AUTO 27005KT 9999 NCD 01/01 Q1004
  • 292120Z AUTO 26004KT 9999 NCD 00/00 Q1004
  • 292050Z AUTO VRB03KT 9999 FEW023/// 01/01 Q1004
  • 292020Z AUTO VRB03KT 9999 OVC023/// 02/01 Q1003

TAF N/A



MET'MAP, your aeronautical weather chart ! - Copyright ORBIFLY December 2007 - Disclaimer

ORBIFLY MET'MAP TEAM :

Programming & Development : Alexandra Zaïnal
Concept & original design : Baudouin d'Aumeries
Assistance for programming : Marc-Olivier Méhu
Technical & hardware support : Manuel Goepfert

Contact : metmap@orbifly.com




SOURCES & CREDITS :

   NOAA